Time;durP1;ratioP1;P1;durP2;ratioP2;P2;SDS_P1;SDS_P2;PMS_P1;PMS_P2;Temp;Humidity;BMP_temperature;BMP_pressure;BME280_temperature;BME280_humidity;BME280_pressure;Samples;Min_cycle;Max_cycle;Signal;HPM_P1;HPM_P2
2023/04/19 00:00:51;;;;;;;20.88;13.98;;;;;;;9.87;83.90;102307.19;5050938;28;20752;-76
2023/04/19 00:03:16;;;;;;;24.17;14.52;;;;;;;9.90;83.72;102313.88;5050016;28;20048;-77
2023/04/19 00:05:43;;;;;;;21.85;14.35;;;;;;;9.82;84.26;102308.47;5067563;28;20024;-77
2023/04/19 00:08:09;;;;;;;24.08;14.05;;;;;;;9.84;84.48;102312.56;5049806;28;20041;-77
2023/04/19 00:10:34;;;;;;;29.80;14.65;;;;;;;9.86;84.47;102308.09;5043481;28;20475;-76
2023/04/19 00:13:00;;;;;;;23.85;14.60;;;;;;;9.88;84.51;102308.00;5056452;28;20044;-78
2023/04/19 00:15:26;;;;;;;26.88;14.70;;;;;;;9.80;85.10;102299.97;5042916;28;20033;-76
2023/04/19 00:17:51;;;;;;;24.40;14.38;;;;;;;9.79;85.64;102306.91;5029511;28;20031;-78
2023/04/19 00:20:16;;;;;;;22.02;13.77;;;;;;;9.87;84.78;102306.31;5062907;28;20560;-76
2023/04/19 00:22:42;;;;;;;23.33;14.45;;;;;;;9.85;84.85;102309.06;5059973;28;20518;-77
2023/04/19 00:25:07;;;;;;;32.38;17.02;;;;;;;9.89;84.76;102309.66;5059438;28;20039;-76
2023/04/19 00:27:33;;;;;;;25.20;15.45;;;;;;;9.81;85.52;102304.19;5029659;28;20154;-76
2023/04/19 00:30:00;;;;;;;22.25;14.55;;;;;;;9.81;85.27;102299.03;5043585;28;20083;-76
2023/04/19 00:32:25;;;;;;;26.38;15.50;;;;;;;9.80;85.64;102305.97;5066867;28;20562;-77
2023/04/19 00:34:51;;;;;;;24.83;15.70;;;;;;;9.80;85.82;102305.97;5044747;28;20040;-77
2023/04/19 00:37:16;;;;;;;25.88;14.48;;;;;;;9.74;85.77;102306.44;5049877;28;20036;-77
2023/04/19 00:39:42;;;;;;;26.70;14.77;;;;;;;9.84;85.96;102304.00;5057883;28;20032;-77
2023/04/19 00:42:07;;;;;;;23.10;14.27;;;;;;;9.74;86.59;102301.25;5052025;28;20037;-77
2023/04/19 00:44:33;;;;;;;23.90;15.35;;;;;;;9.74;87.01;102306.44;5064737;28;20106;-76
2023/04/19 00:46:58;;;;;;;24.98;15.18;;;;;;;9.74;87.47;102296.09;5063451;28;20056;-75
2023/04/19 00:49:24;;;;;;;23.35;15.18;;;;;;;9.77;87.11;102295.84;5042485;28;20028;-76
2023/04/19 00:51:50;;;;;;;22.60;14.30;;;;;;;9.77;87.68;102298.41;5047067;28;20580;-77
2023/04/19 00:54:17;;;;;;;23.77;14.30;;;;;;;9.74;87.78;102299.50;5045166;28;20036;-77
2023/04/19 00:56:43;;;;;;;23.83;14.60;;;;;;;9.81;87.73;102305.03;5060644;28;20052;-75
2023/04/19 00:59:10;;;;;;;26.92;15.07;;;;;;;9.77;88.10;102298.41;5068660;28;20036;-76
2023/04/19 01:01:37;;;;;;;29.30;14.57;;;;;;;9.71;88.85;102293.72;5065344;28;20066;-77
2023/04/19 01:04:03;;;;;;;25.17;15.75;;;;;;;9.77;88.19;102298.41;5052643;28;20062;-77
2023/04/19 01:06:29;;;;;;;26.55;14.07;;;;;;;9.72;89.07;102297.97;5050863;28;20375;-77
2023/04/19 01:08:55;;;;;;;23.77;15.07;;;;;;;9.70;89.42;102292.03;5050276;28;20082;-77
2023/04/19 01:11:24;;;;;;;25.08;15.73;;;;;;;9.72;89.15;102293.59;5066278;28;20918;-76
2023/04/19 01:13:50;;;;;;;25.33;14.40;;;;;;;9.68;89.89;102286.16;5066979;28;20042;-76
2023/04/19 01:16:17;;;;;;;24.88;14.52;;;;;;;9.74;89.33;102281.34;5048680;28;20101;-77
2023/04/19 01:18:42;;;;;;;28.25;14.35;;;;;;;9.66;90.17;102290.63;5046104;28;20033;-77
2023/04/19 01:21:08;;;;;;;25.98;14.57;;;;;;;9.68;91.01;102291.34;5068143;28;20082;-77
2023/04/19 01:23:34;;;;;;;26.10;15.15;;;;;;;9.75;90.21;102289.94;5065843;28;20066;-77
2023/04/19 01:26:01;;;;;;;27.45;16.75;;;;;;;9.72;90.61;102283.25;5047507;28;20071;-75
2023/04/19 01:28:27;;;;;;;25.58;15.07;;;;;;;9.79;90.20;102291.34;5060432;28;20499;-77
2023/04/19 01:30:53;;;;;;;26.92;15.82;;;;;;;9.72;90.91;102288.41;5068346;28;20032;-76
2023/04/19 01:33:19;;;;;;;29.25;15.70;;;;;;;9.75;90.96;102277.81;5066307;28;20044;-76
2023/04/19 01:35:46;;;;;;;26.45;15.02;;;;;;;9.69;91.61;102277.47;5069164;28;20033;-76
2023/04/19 01:38:13;;;;;;;29.30;16.17;;;;;;;9.69;91.35;102283.44;5045885;28;20136;-76
2023/04/19 01:40:40;;;;;;;27.30;15.88;;;;;;;9.79;91.14;102282.78;5042801;28;20090;-77
2023/04/19 01:43:06;;;;;;;27.02;15.30;;;;;;;9.73;92.01;102281.47;5065790;28;21376;-77
2023/04/19 01:45:32;;;;;;;36.97;16.20;;;;;;;9.69;92.22;102275.69;5046314;28;20025;-77
2023/04/19 01:48:01;;;;;;;31.33;16.85;;;;;;;9.68;92.19;102271.47;5046810;28;20044;-76
2023/04/19 01:50:27;;;;;;;28.60;16.30;;;;;;;9.80;92.09;102264.53;5067711;28;20078;-77
2023/04/19 01:52:52;;;;;;;40.20;17.02;;;;;;;9.74;92.02;102262.41;5066883;28;20032;-77
2023/04/19 01:55:18;;;;;;;27.92;16.02;;;;;;;9.68;92.79;102258.50;5061565;28;20040;-78
2023/04/19 01:57:43;;;;;;;30.17;17.65;;;;;;;9.72;92.78;102264.28;5062388;28;20020;-76
2023/04/19 02:00:10;;;;;;;31.63;17.70;;;;;;;9.71;92.81;102260.84;5030576;28;20541;-77
2023/04/19 02:02:42;;;;;;;32.92;17.85;;;;;;;9.71;93.21;102267.81;5043921;28;20039;-76
2023/04/19 02:05:08;;;;;;;29.17;16.85;;;;;;;9.72;93.12;102270.28;5044386;28;20028;-77
2023/04/19 02:07:34;;;;;;;30.35;17.70;;;;;;;9.74;93.50;102262.41;5031200;28;20056;-76
2023/04/19 02:09:59;;;;;;;30.35;17.33;;;;;;;9.71;93.60;102267.81;5031597;28;20518;-77
2023/04/19 02:12:29;;;;;;;30.48;17.33;;;;;;;9.69;94.06;102251.56;5041677;28;20485;-77
2023/04/19 02:14:56;;;;;;;33.08;18.75;;;;;;;9.68;94.54;102260.25;5046042;28;20137;-77
2023/04/19 02:17:29;;;;;;;32.88;18.02;;;;;;;9.78;94.02;102256.03;5059444;28;20033;-77
2023/04/19 02:19:55;;;;;;;30.80;17.05;;;;;;;9.74;94.71;102257.22;5060657;28;21815;-77
2023/04/19 02:22:21;;;;;;;29.67;17.40;;;;;;;9.70;95.11;102255.78;5045435;28;20043;-77
2023/04/19 02:24:49;;;;;;;29.85;16.88;;;;;;;9.71;95.01;102263.44;5038919;28;20507;-78
2023/04/19 02:27:15;;;;;;;29.38;17.75;;;;;;;9.72;95.42;102254.75;5027688;28;20043;-76
2023/04/19 02:29:41;;;;;;;32.15;17.13;;;;;;;9.77;95.47;102256.97;5062149;28;20041;-77
2023/04/19 02:32:06;;;;;;;33.90;18.70;;;;;;;9.72;96.27;102254.75;5047348;28;20028;-78
2023/04/19 02:34:33;;;;;;;29.25;17.63;;;;;;;9.79;96.31;102259.47;5073010;28;20382;-76
2023/04/19 02:36:59;;;;;;;32.28;19.02;;;;;;;9.74;96.28;102252.84;5038173;28;20381;-77
2023/04/19 02:39:27;;;;;;;28.48;17.30;;;;;;;9.72;96.99;102253.94;5030112;28;20036;-75
2023/04/19 02:41:52;;;;;;;32.15;16.85;;;;;;;9.84;96.23;102247.00;5062247;28;20036;-76
2023/04/19 02:44:18;;;;;;;33.53;17.60;;;;;;;9.80;96.51;102250.75;5029128;28;20037;-77
2023/04/19 02:46:53;;;;;;;27.38;16.35;;;;;;;9.85;96.05;102252.06;5052219;28;21917;-76
2023/04/19 02:49:19;;;;;;;26.38;16.48;;;;;;;9.81;95.94;102253.22;5076031;28;20037;-77
2023/04/19 02:51:45;;;;;;;29.98;16.92;;;;;;;9.78;96.25;102260.41;5047524;28;20116;-74
2023/04/19 02:54:13;;;;;;;28.27;17.02;;;;;;;9.74;96.48;102257.22;5060698;28;20040;-76
2023/04/19 02:56:40;;;;;;;27.73;15.88;;;;;;;9.72;96.48;102253.94;5048385;28;20067;-77
2023/04/19 02:59:05;;;;;;;32.03;16.95;;;;;;;9.72;95.97;102253.94;5036062;28;20036;-76
2023/04/19 03:01:32;;;;;;;28.48;16.08;;;;;;;9.81;95.45;102258.38;5065366;28;20044;-77
2023/04/19 03:03:59;;;;;;;27.60;17.60;;;;;;;9.74;95.51;102262.41;5058130;28;20043;-76
2023/04/19 03:06:25;;;;;;;27.35;16.45;;;;;;;9.77;95.21;102262.16;5050288;28;20020;-78
2023/04/19 03:08:50;;;;;;;29.60;17.08;;;;;;;9.83;94.74;102253.94;5047790;28;20036;-76
2023/04/19 03:11:17;;;;;;;30.35;18.48;;;;;;;9.71;95.37;102253.06;5062957;28;20028;-76
2023/04/19 03:13:43;;;;;;;31.27;16.67;;;;;;;9.69;95.62;102241.19;5063354;28;20037;-77
2023/04/19 03:16:11;;;;;;;25.48;16.05;;;;;;;9.62;95.77;102247.78;5032974;28;20033;-76
2023/04/19 03:18:36;;;;;;;28.20;16.30;;;;;;;9.67;95.75;102246.47;5046936;28;20056;-76
2023/04/19 03:21:03;;;;;;;30.75;17.38;;;;;;;9.62;96.13;102247.78;5049982;28;20094;-77
2023/04/19 03:23:36;;;;;;;26.02;15.95;;;;;;;9.71;95.23;102245.31;5038782;28;20131;-77
2023/04/19 03:26:01;;;;;;;29.85;15.52;;;;;;;9.68;95.29;102244.72;5061944;28;20051;-76
2023/04/19 03:28:47;;;;;;;27.92;15.88;;;;;;;9.64;95.35;102240.69;5046528;28;20067;-76
2023/04/19 03:31:26;;;;;;;28.15;16.27;;;;;;;9.61;95.64;102246.13;5039056;28;20024;-77
2023/04/19 03:33:52;;;;;;;23.33;14.82;;;;;;;9.56;95.50;102236.09;5067810;28;20033;-77
2023/04/19 03:36:21;;;;;;;26.90;15.23;;;;;;;9.60;95.50;102241.88;5055721;28;20455;-77
2023/04/19 03:38:49;;;;;;;28.45;15.57;;;;;;;9.53;95.54;102242.34;5048471;28;20029;-77
2023/04/19 03:41:23;;;;;;;32.67;15.95;;;;;;;9.65;94.35;102239.78;5061419;28;20039;-76
2023/04/19 03:43:57;;;;;;;29.17;15.52;;;;;;;9.62;93.88;102238.22;5070070;28;20037;-78
2023/04/19 03:46:23;;;;;;;25.02;14.45;;;;;;;9.63;94.09;102236.47;5032272;28;20044;-77
2023/04/19 03:48:50;;;;;;;27.58;15.80;;;;;;;9.60;94.47;102232.34;5047469;28;20068;-77
2023/04/19 03:51:17;;;;;;;26.77;15.07;;;;;;;9.53;94.40;102234.56;5085224;28;20111;-77
2023/04/19 03:53:43;;;;;;;30.90;15.07;;;;;;;9.49;95.01;102232.31;5044485;28;20044;-78
2023/04/19 03:56:09;;;;;;;25.98;14.98;;;;;;;9.46;94.94;102233.38;5048720;28;20036;-77
2023/04/19 03:58:36;;;;;;;27.08;15.38;;;;;;;9.50;95.36;102241.75;5064274;28;20032;-77
2023/04/19 04:01:07;;;;;;;31.95;14.98;;;;;;;9.52;94.76;102235.50;5067562;28;20056;-76
2023/04/19 04:03:33;;;;;;;27.33;14.65;;;;;;;9.53;94.68;102241.50;5068150;28;20047;-77
2023/04/19 04:06:01;;;;;;;27.77;15.02;;;;;;;9.48;94.91;102239.25;5049900;28;20032;-77
2023/04/19 04:08:27;;;;;;;25.65;14.25;;;;;;;9.55;94.98;102234.47;5053866;28;20028;-77
2023/04/19 04:10:53;;;;;;;28.38;14.80;;;;;;;9.59;93.72;102237.63;5050454;28;20066;-76
2023/04/19 04:13:20;;;;;;;24.38;14.07;;;;;;;9.49;94.40;102238.34;5066480;28;20522;-77
2023/04/19 04:15:54;;;;;;;27.63;15.15;;;;;;;9.48;94.25;102241.03;5064816;28;20115;-77
2023/04/19 04:18:19;;;;;;;29.23;16.80;;;;;;;9.45;94.41;102236.88;5061049;28;20052;-77
2023/04/19 04:20:45;;;;;;;32.42;15.18;;;;;;;9.48;93.98;102226.31;5053986;28;20041;-76
2023/04/19 04:23:11;;;;;;;31.00;15.02;;;;;;;9.51;93.08;102223.50;5065658;28;20028;-77
2023/04/19 04:25:41;;;;;;;27.10;13.90;;;;;;;9.52;93.17;102221.75;5044553;28;20020;-78
2023/04/19 04:28:10;;;;;;;22.83;13.38;;;;;;;9.47;92.92;102229.00;5043925;28;20101;-77
2023/04/19 04:30:37;;;;;;;22.92;13.23;;;;;;;9.42;93.25;102228.50;5056434;28;20052;-77
2023/04/19 04:33:05;;;;;;;25.70;12.77;;;;;;;9.41;93.71;102237.25;5045385;28;20125;-77
2023/04/19 04:35:30;;;;;;;26.38;14.60;;;;;;;9.38;93.66;102234.88;5051666;28;20033;-77
2023/04/19 04:38:06;;;;;;;23.20;12.43;;;;;;;9.42;91.66;102237.13;5061135;28;20024;-77
2023/04/19 04:40:32;;;;;;;21.30;12.07;;;;;;;9.52;91.48;102229.50;5048511;28;20427;-77
2023/04/19 04:42:59;;;;;;;22.85;12.90;;;;;;;9.39;92.07;102232.16;5068043;28;20067;-76
2023/04/19 04:45:27;;;;;;;22.55;12.60;;;;;;;9.39;91.76;102234.75;5068481;28;20024;-76
2023/04/19 04:47:54;;;;;;;18.30;11.38;;;;;;;9.46;91.41;102228.19;5065523;28;20691;-77
2023/04/19 04:50:20;;;;;;;18.90;11.13;;;;;;;9.44;90.39;102235.25;5033597;28;20028;-77
2023/04/19 04:52:48;;;;;;;18.00;10.48;;;;;;;9.35;90.81;102228.16;5051620;28;20483;-77
2023/04/19 04:55:33;;;;;;;20.35;9.60;;;;;;;9.40;90.58;102231.25;5065773;28;20033;-76
2023/04/19 04:57:59;;;;;;;18.85;10.27;;;;;;;9.35;90.59;102239.34;5047589;28;20498;-75
2023/04/19 05:00:37;;;;;;;17.70;10.68;;;;;;;9.39;90.69;102234.75;5035214;28;20063;-77
2023/04/19 05:03:06;;;;;;;26.20;10.32;;;;;;;9.44;90.64;102240.44;5063145;28;20777;-77
2023/04/19 05:05:36;;;;;;;15.98;9.20;;;;;;;9.35;90.55;102239.34;5033203;28;20060;-76
2023/04/19 05:08:02;;;;;;;14.98;9.15;;;;;;;9.34;90.82;102231.69;5074133;28;20257;-78
2023/04/19 05:10:28;;;;;;;17.23;9.25;;;;;;;9.39;90.48;102231.34;5052287;28;20031;-77
2023/04/19 05:12:53;;;;;;;17.77;9.23;;;;;;;9.43;89.85;102236.19;5068805;28;20675;-76
2023/04/19 05:15:19;;;;;;;16.67;9.25;;;;;;;9.39;89.97;102233.94;5089050;28;20407;-77
2023/04/19 05:17:49;;;;;;;17.30;8.35;;;;;;;9.41;87.67;102235.47;5030688;28;20564;-77
2023/04/19 05:20:15;;;;;;;16.67;8.57;;;;;;;9.47;87.58;102236.78;5069028;28;20028;-78
2023/04/19 05:22:42;;;;;;;17.75;8.68;;;;;;;9.43;88.05;102225.81;5056547;28;20422;-78
2023/04/19 05:25:09;;;;;;;15.60;7.78;;;;;;;9.41;87.77;102226.88;5035517;28;20101;-77
2023/04/19 05:27:35;;;;;;;19.25;9.35;;;;;;;9.49;87.41;102219.38;5030224;28;20029;-77
2023/04/19 05:30:02;;;;;;;13.13;7.60;;;;;;;9.47;87.06;102229.00;5048499;28;20031;-77
2023/04/19 05:32:29;;;;;;;17.73;8.50;;;;;;;9.53;86.54;102231.13;5046081;28;20542;-76
2023/04/19 05:34:56;;;;;;;13.57;7.28;;;;;;;9.53;86.26;102234.56;5031777;28;20033;-76
2023/04/19 05:37:23;;;;;;;14.30;8.05;;;;;;;9.49;86.29;102234.91;5064124;28;20662;-77
2023/04/19 05:39:49;;;;;;;12.85;6.85;;;;;;;9.48;85.26;102241.84;5032303;28;20568;-76
2023/04/19 05:42:14;;;;;;;12.15;6.47;;;;;;;9.52;83.35;102232.91;5032367;28;20028;-77
2023/04/19 05:44:40;;;;;;;10.98;6.28;;;;;;;9.39;83.71;102231.34;5049440;28;20033;-77
2023/04/19 05:47:05;;;;;;;16.92;5.75;;;;;;;9.38;80.98;102243.47;5044374;28;20078;-76
2023/04/19 05:49:49;;;;;;;13.98;5.75;;;;;;;9.48;80.00;102234.09;5059273;28;20036;-77
2023/04/19 05:52:25;;;;;;;13.10;5.95;;;;;;;9.40;79.76;102233.00;5050766;28;20028;-77
2023/04/19 05:54:55;;;;;;;12.20;5.32;;;;;;;9.39;77.15;102239.13;5033369;28;20533;-76
2023/04/19 05:57:20;;;;;;;9.75;5.90;;;;;;;9.46;76.12;102245.50;5030203;28;20044;-76
2023/04/19 05:59:46;;;;;;;11.27;5.75;;;;;;;9.47;76.32;102239.38;5059609;28;20029;-77
2023/04/19 06:02:15;;;;;;;11.25;5.95;;;;;;;9.53;76.24;102241.50;5046115;28;20025;-76
2023/04/19 06:04:40;;;;;;;10.23;5.82;;;;;;;9.49;75.98;102243.50;5028970;28;20115;-77
2023/04/19 06:07:06;;;;;;;11.48;5.68;;;;;;;9.53;74.82;102251.84;5064665;28;20511;-78
2023/04/19 06:09:32;;;;;;;10.27;5.78;;;;;;;9.52;74.11;102245.84;5058999;28;20045;-76
2023/04/19 06:11:57;;;;;;;8.88;5.75;;;;;;;9.72;74.21;102243.56;5061290;28;20107;-77
2023/04/19 06:14:23;;;;;;;14.40;6.22;;;;;;;9.73;72.85;102243.44;5032340;28;20028;-77
2023/04/19 06:16:49;;;;;;;10.57;5.85;;;;;;;9.72;71.99;102251.34;5082802;28;20036;-77
2023/04/19 06:19:15;;;;;;;9.50;5.78;;;;;;;9.72;72.06;102240.97;5051128;28;20045;-76
2023/04/19 06:21:40;;;;;;;12.85;5.80;;;;;;;9.79;71.91;102239.53;5064478;28;20032;-76
2023/04/19 06:24:06;;;;;;;14.18;5.90;;;;;;;9.84;72.05;102237.44;5065894;28;20033;-77
2023/04/19 06:26:31;;;;;;;14.57;6.05;;;;;;;9.78;71.66;102244.88;5057717;28;20048;-77
2023/04/19 06:28:57;;;;;;;11.60;5.55;;;;;;;9.82;71.80;102233.34;5047850;28;20039;-76
2023/04/19 06:31:23;;;;;;;11.88;5.85;;;;;;;9.88;71.92;102240.63;5031526;28;20040;-77
2023/04/19 06:33:48;;;;;;;11.85;6.57;;;;;;;9.75;71.61;102244.13;5069280;28;20036;-76
2023/04/19 06:36:14;;;;;;;12.13;7.32;;;;;;;9.84;70.59;102228.84;5048950;28;20039;-77
2023/04/19 06:38:40;;;;;;;19.80;10.50;;;;;;;9.83;71.20;102232.38;5050715;28;20040;-76
2023/04/19 06:41:06;;;;;;;12.43;6.53;;;;;;;9.89;71.10;102237.94;5049368;28;20550;-75
2023/04/19 06:43:31;;;;;;;11.77;7.13;;;;;;;9.95;72.72;102234.03;5065014;28;20033;-77
2023/04/19 06:46:01;;;;;;;14.07;7.03;;;;;;;9.98;71.01;102233.78;5061828;28;20824;-76
2023/04/19 06:48:27;;;;;;;11.15;6.88;;;;;;;10.13;72.16;102231.78;5060423;28;20036;-78
2023/04/19 06:50:55;;;;;;;10.57;6.30;;;;;;;10.21;70.92;102237.22;5033607;28;20632;-77
2023/04/19 06:53:21;;;;;;;12.07;6.45;;;;;;;10.40;71.11;102244.44;5029489;28;20072;-80
2023/04/19 06:55:47;;;;;;;14.00;6.80;;;;;;;10.36;69.58;102237.00;5041129;28;20029;-77
2023/04/19 06:58:13;;;;;;;11.43;6.38;;;;;;;10.60;69.77;102234.25;5080106;28;20059;-78
2023/04/19 07:00:38;;;;;;;13.32;7.05;;;;;;;10.71;67.92;102231.63;5073472;28;20029;-78
2023/04/19 07:03:03;;;;;;;14.07;7.53;;;;;;;11.02;66.53;102231.75;5044129;28;20472;-77
2023/04/19 07:05:30;;;;;;;16.75;6.80;;;;;;;11.54;65.84;102230.09;5047306;28;20035;-78
2023/04/19 07:07:56;;;;;;;11.90;6.43;;;;;;;12.52;63.48;102235.75;5059620;28;20399;-80
2023/04/19 07:10:21;;;;;;;10.60;6.80;;;;;;;12.60;60.22;102236.72;5048919;28;20149;-76
2023/04/19 07:13:12;;;;;;;12.63;6.10;;;;;;;13.20;59.82;102241.00;5044463;28;20090;-77
2023/04/19 07:16:04;;;;;;;19.55;6.85;;;;;;;13.14;58.54;102241.56;5057407;28;20036;-79
2023/04/19 07:18:29;;;;;;;11.43;6.63;;;;;;;13.28;57.35;102235.09;5062883;28;20071;-78
2023/04/19 07:20:55;;;;;;;15.10;7.20;;;;;;;14.14;55.66;102224.59;5049600;28;20032;-78
2023/04/19 07:23:20;;;;;;;11.32;6.97;;;;;;;13.98;54.24;102223.41;5031881;28;22310;-77
2023/04/19 07:25:45;;;;;;;16.92;6.45;;;;;;;14.18;54.31;102232.00;5033923;28;20028;-78
2023/04/19 07:28:11;;;;;;;11.73;5.95;;;;;;;14.11;53.04;102232.69;5059949;28;20041;-78
2023/04/19 07:30:36;;;;;;;12.23;6.35;;;;;;;13.45;53.77;102229.22;5063727;28;20032;-78
2023/04/19 07:33:03;;;;;;;12.85;6.03;;;;;;;13.22;54.37;102231.25;5075966;28;20033;-78
2023/04/19 07:35:29;;;;;;;11.75;6.50;;;;;;;13.87;52.65;102228.00;5049075;28;20040;-78
2023/04/19 07:37:54;;;;;;;17.15;7.03;;;;;;;13.59;51.68;102228.75;5047913;28;20041;-77
2023/04/19 07:40:20;;;;;;;18.58;5.80;;;;;;;14.07;51.76;102223.50;5045778;28;20032;-78
2023/04/19 07:42:45;;;;;;;10.98;6.05;;;;;;;13.95;50.08;102225.50;5045297;28;20063;-77
2023/04/19 07:45:11;;;;;;;12.63;5.22;;;;;;;14.27;49.21;102232.88;5047862;28;20074;-79
2023/04/19 07:47:37;;;;;;;18.88;5.82;;;;;;;15.11;48.75;102225.75;5051960;28;20482;-76
2023/04/19 07:50:04;;;;;;;9.85;5.60;;;;;;;14.85;46.19;102223.91;5048499;28;20044;-78
2023/04/19 07:52:30;;;;;;;16.08;5.28;;;;;;;14.89;46.03;102224.41;5073834;28;20036;-78
2023/04/19 07:54:55;;;;;;;10.32;5.50;;;;;;;15.36;46.55;102219.72;5041783;28;20457;-78
2023/04/19 07:57:21;;;;;;;9.40;5.15;;;;;;;15.21;45.61;102223.03;5065500;28;20059;-78
2023/04/19 07:59:46;;;;;;;17.48;5.45;;;;;;;15.32;45.97;102218.38;5044515;28;20040;-79
2023/04/19 08:02:12;;;;;;;12.77;5.75;;;;;;;15.21;46.26;102218.63;5062796;28;20032;-78
2023/04/19 08:04:38;;;;;;;12.38;6.45;;;;;;;14.51;45.84;102224.50;5064423;28;20040;-78
2023/04/19 08:07:03;;;;;;;13.25;5.53;;;;;;;14.51;46.61;102221.09;5046264;28;20039;-79
2023/04/19 08:09:29;;;;;;;10.13;5.35;;;;;;;15.32;46.53;102217.56;5049645;28;20044;-78
2023/04/19 08:11:55;;;;;;;7.50;4.75;;;;;;;15.79;45.89;102209.38;5045631;28;20043;-76
2023/04/19 08:14:21;;;;;;;9.65;5.22;;;;;;;15.46;43.52;102208.34;5030362;28;20079;-80
2023/04/19 08:16:46;;;;;;;10.32;5.13;;;;;;;15.86;43.71;102217.41;5066712;28;20025;-78
2023/04/19 08:19:12;;;;;;;11.85;5.15;;;;;;;15.72;44.56;102203.09;5034734;28;20102;-78
2023/04/19 08:21:37;;;;;;;14.68;5.03;;;;;;;15.23;44.41;102208.84;5070642;28;20106;-76
2023/04/19 08:24:03;;;;;;;10.13;5.32;;;;;;;15.87;43.88;102205.97;5058758;28;20102;-80
2023/04/19 08:26:28;;;;;;;11.45;5.28;;;;;;;16.20;43.73;102204.31;5067179;28;20047;-80
2023/04/19 08:28:54;;;;;;;9.32;4.95;;;;;;;16.25;43.04;102206.44;5070981;28;20039;-78
2023/04/19 08:31:20;;;;;;;7.63;4.68;;;;;;;16.11;43.30;102205.28;5051828;28;20482;-77
2023/04/19 08:33:46;;;;;;;8.27;4.78;;;;;;;16.61;43.08;102198.34;5065416;28;21768;-79
2023/04/19 08:36:11;;;;;;;10.50;5.18;;;;;;;16.69;41.28;102199.16;5070198;28;20051;-78
2023/04/19 08:38:37;;;;;;;10.63;5.90;;;;;;;16.82;41.55;102203.09;5079696;28;20032;-80
2023/04/19 08:41:03;;;;;;;8.52;4.80;;;;;;;16.86;41.62;102196.59;5052747;28;20112;-78
2023/04/19 08:43:32;;;;;;;8.93;4.75;;;;;;;16.15;41.05;102211.81;5049623;28;20119;-78
2023/04/19 08:45:58;;;;;;;10.55;4.20;;;;;;;16.17;41.15;102195.97;5040821;28;20044;-75
2023/04/19 08:48:26;;;;;;;7.80;4.50;;;;;;;16.18;41.55;102200.19;5065069;28;20039;-77
2023/04/19 08:50:52;;;;;;;10.77;4.13;;;;;;;15.92;41.93;102194.06;5052580;28;20037;-79
2023/04/19 08:53:18;;;;;;;12.23;4.78;;;;;;;15.83;42.83;102199.44;5066056;28;20119;-78
2023/04/19 08:55:45;;;;;;;12.88;5.63;;;;;;;15.62;41.89;102195.38;5053486;28;20639;-77
2023/04/19 08:58:10;;;;;;;9.32;4.60;;;;;;;16.34;42.23;102201.06;5034818;28;20044;-77
2023/04/19 09:00:40;;;;;;;9.00;5.20;;;;;;;16.43;40.91;102211.56;5037400;28;20278;-77
2023/04/19 09:03:08;;;;;;;8.05;4.55;;;;;;;15.99;40.84;102202.09;5049232;28;20032;-78
2023/04/19 09:05:34;;;;;;;13.20;4.60;;;;;;;16.04;40.21;102201.63;5035763;28;20035;-78
2023/04/19 09:08:22;;;;;;;7.22;4.72;;;;;;;15.48;40.84;102198.56;5033974;28;20040;-77
2023/04/19 09:11:00;;;;;;;7.68;4.30;;;;;;;15.94;40.60;102192.13;5065789;28;20036;-77
2023/04/19 09:13:27;;;;;;;12.43;4.70;;;;;;;16.01;41.06;102194.94;5083137;28;20504;-80
2023/04/19 09:15:55;;;;;;;12.73;4.05;;;;;;;15.07;40.34;102209.56;5067985;28;20392;-79
2023/04/19 09:18:21;;;;;;;8.63;3.53;;;;;;;15.20;40.66;102193.50;5060897;28;20726;-77
2023/04/19 09:20:47;;;;;;;9.95;4.15;;;;;;;15.45;42.71;102202.31;5067611;28;20052;-80
2023/04/19 09:23:15;;;;;;;5.60;3.58;;;;;;;16.22;41.07;102185.81;5084299;28;20688;-78
2023/04/19 09:25:54;;;;;;;9.15;4.22;;;;;;;16.33;39.61;102194.22;5026585;28;20021;-79
2023/04/19 09:28:20;;;;;;;12.10;3.78;;;;;;;16.93;40.12;102187.91;5057275;28;20071;-78
2023/04/19 09:30:46;;;;;;;8.88;4.22;;;;;;;16.61;39.86;102198.34;5051590;28;20569;-78
2023/04/19 09:33:11;;;;;;;8.73;3.47;;;;;;;16.13;39.41;102201.50;5032054;28;20672;-78
2023/04/19 09:35:47;;;;;;;8.35;3.63;;;;;;;16.15;39.97;102199.53;5048715;28;20135;-79
2023/04/19 09:38:13;;;;;;;8.70;3.50;;;;;;;15.70;39.92;102202.44;5063779;28;20036;-78
2023/04/19 09:40:39;;;;;;;13.10;4.30;;;;;;;15.55;41.49;102191.75;5033322;28;20020;-77
2023/04/19 09:43:05;;;;;;;4.10;3.08;;;;;;;15.63;40.82;102190.97;5043270;28;20510;-78
2023/04/19 09:45:44;;;;;;;8.82;3.92;;;;;;;15.68;40.92;102191.31;5048453;28;20035;-78
2023/04/19 09:48:11;;;;;;;8.48;3.78;;;;;;;15.88;40.42;102191.91;5066002;28;20033;-77
2023/04/19 09:50:53;;;;;;;14.25;4.10;;;;;;;15.33;40.86;102193.06;5030326;28;20027;-79
2023/04/19 09:53:20;;;;;;;9.45;3.42;;;;;;;15.40;41.22;102186.25;5055071;28;20047;-77
2023/04/19 09:55:48;;;;;;;7.47;4.00;;;;;;;15.02;40.66;102188.28;5054016;28;20037;-78
2023/04/19 09:58:14;;;;;;;5.65;3.33;;;;;;;15.03;42.54;102186.50;5061544;28;20048;-78
2023/04/19 10:00:42;;;;;;;10.38;3.28;;;;;;;15.29;41.63;102181.28;5041138;28;20056;-77
2023/04/19 10:03:09;;;;;;;7.90;3.95;;;;;;;15.70;42.29;102160.59;5045558;28;20518;-78
2023/04/19 10:05:42;;;;;;;6.68;3.65;;;;;;;15.76;41.20;102173.91;5050930;28;20032;-78
2023/04/19 10:08:09;;;;;;;4.78;3.47;;;;;;;15.62;40.50;102166.63;5063088;28;20060;-79
2023/04/19 10:10:35;;;;;;;8.93;2.95;;;;;;;15.43;37.70;102166.84;5065142;28;20557;-79
2023/04/19 10:13:03;;;;;;;4.32;2.65;;;;;;;15.64;38.73;102180.34;5062333;28;20040;-78
2023/04/19 10:15:30;;;;;;;5.93;2.35;;;;;;;14.94;37.70;102170.75;5069493;28;20494;-79
2023/04/19 10:17:56;;;;;;;7.95;2.63;;;;;;;14.71;36.83;102170.41;5049920;28;20031;-80
2023/04/19 10:20:43;;;;;;;8.77;3.17;;;;;;;14.96;39.01;102154.94;5065027;28;20041;-78
2023/04/19 10:23:09;;;;;;;8.13;3.47;;;;;;;15.08;37.82;102156.31;5048302;28;20037;-79
2023/04/19 10:25:36;;;;;;;7.43;2.75;;;;;;;14.82;37.33;102158.91;5048801;28;20024;-78
2023/04/19 10:28:02;;;;;;;7.47;2.28;;;;;;;15.04;39.18;102154.19;5040780;28;20040;-77
2023/04/19 10:30:27;;;;;;;7.75;2.30;;;;;;;14.89;37.86;102153.91;5078970;28;20036;-79
2023/04/19 10:32:55;;;;;;;4.63;2.30;;;;;;;15.21;38.34;102147.28;5048156;28;20028;-76
2023/04/19 10:35:23;;;;;;;4.53;1.98;;;;;;;14.82;37.55;102155.47;5062971;28;20040;-79
2023/04/19 10:38:09;;;;;;;6.60;2.05;;;;;;;14.95;36.37;102151.50;5040776;28;20037;-78
2023/04/19 10:40:54;;;;;;;7.97;2.60;;;;;;;14.96;37.99;102147.13;5064766;28;20048;-80
2023/04/19 10:43:21;;;;;;;6.90;1.48;;;;;;;14.97;36.61;102144.34;5048759;28;20053;-80
2023/04/19 10:45:46;;;;;;;5.82;1.88;;;;;;;15.18;35.63;102148.38;5051882;28;20021;-78
2023/04/19 10:48:32;;;;;;;6.78;1.67;;;;;;;14.88;33.69;102145.25;5058310;28;20045;-77
2023/04/19 10:51:12;;;;;;;4.35;1.77;;;;;;;14.93;36.29;102145.59;5065749;28;20025;-79
2023/04/19 10:53:44;;;;;;;4.03;1.88;;;;;;;15.25;35.57;102148.59;5059748;28;20042;-78
2023/04/19 10:56:10;;;;;;;2.72;1.58;;;;;;;15.30;35.18;102152.41;5047475;28;20029;-80
2023/04/19 10:59:01;;;;;;;4.30;1.40;;;;;;;15.32;35.98;102136.56;5034477;28;20067;-80
2023/04/19 11:01:41;;;;;;;11.82;1.63;;;;;;;15.15;34.85;102146.09;5043430;28;20032;-79
2023/04/19 11:04:15;;;;;;;3.13;1.60;;;;;;;15.18;34.19;102130.09;5049564;28;20044;-77
2023/04/19 11:06:53;;;;;;;5.63;1.90;;;;;;;14.90;33.33;102135.47;5063335;28;20109;-78
2023/04/19 11:09:25;;;;;;;2.95;1.85;;;;;;;14.59;35.08;102132.44;5044516;28;20056;-77
2023/04/19 11:11:59;;;;;;;2.70;1.55;;;;;;;14.55;34.52;102139.72;5049917;28;20395;-79
2023/04/19 11:14:28;;;;;;;6.22;1.67;;;;;;;14.28;35.71;102135.41;5042600;28;20044;-77
2023/04/19 11:16:54;;;;;;;5.43;2.05;;;;;;;14.40;35.96;102128.19;5031221;28;20021;-79
2023/04/19 11:19:19;;;;;;;6.63;2.30;;;;;;;14.79;34.70;102138.34;5060446;28;20091;-78
2023/04/19 11:21:45;;;;;;;6.57;1.90;;;;;;;14.35;34.98;102126.03;5062755;28;20052;-79